Anoka, Minnesota
Current Conditions -  °F | °C
As of 7:45 AM on Sunday 21 Dec 2014 (Local Time) from KANE Reporting Station
Haze Haze  
Wind Chill: 26°   Ceiling: 400
Heat Index: 34°   Visibility: 2mi
Dew Point: 34°   Wind: 10mph
Humidity: 100%   Direction: 130°SE
Pressure: 29.88"   Gusts: 17mph
Location:  45.2°N, 93.39°W
Report Text: KANE 211345Z 13009G15KT 2SM BR OVC004 01/01 A2988
Loading
Personal Weather Stations






























Interactive Weather Map New forecast layout! Learn more

10-Day Weather Forecast

Advertisements
Track Severe Weather on mobile